sensor_id;sensor_type;location;lat;lon;timestamp;temperature;humidity
48998;DHT22;34807;51.456;7.244;2023-03-03T00:01:52;3.30;98.20
48998;DHT22;34807;51.456;7.244;2023-03-03T00:04:18;3.30;97.90
48998;DHT22;34807;51.456;7.244;2023-03-03T00:06:44;3.30;97.90
48998;DHT22;34807;51.456;7.244;2023-03-03T00:09:09;3.30;97.90
48998;DHT22;34807;51.456;7.244;2023-03-03T00:11:35;3.30;97.90
48998;DHT22;34807;51.456;7.244;2023-03-03T00:14:00;3.30;97.90
48998;DHT22;34807;51.456;7.244;2023-03-03T00:16:38;3.30;98.00
48998;DHT22;34807;51.456;7.244;2023-03-03T00:19:16;3.30;98.00
48998;DHT22;34807;51.456;7.244;2023-03-03T00:21:43;3.30;97.90
48998;DHT22;34807;51.456;7.244;2023-03-03T00:26:36;3.30;97.90
48998;DHT22;34807;51.456;7.244;2023-03-03T00:29:17;3.30;97.90
48998;DHT22;34807;51.456;7.244;2023-03-03T00:31:47;3.30;98.00
48998;DHT22;34807;51.456;7.244;2023-03-03T00:36:38;3.30;98.00
48998;DHT22;34807;51.456;7.244;2023-03-03T00:41:39;3.30;98.00
48998;DHT22;34807;51.456;7.244;2023-03-03T00:49:47;3.20;97.80
48998;DHT22;34807;51.456;7.244;2023-03-03T00:52:13;3.20;97.90
48998;DHT22;34807;51.456;7.244;2023-03-03T00:54:40;3.20;97.90
48998;DHT22;34807;51.456;7.244;2023-03-03T00:57:05;3.20;97.80
48998;DHT22;34807;51.456;7.244;2023-03-03T00:59:31;3.20;97.90
48998;DHT22;34807;51.456;7.244;2023-03-03T01:01:57;3.20;97.90
48998;DHT22;34807;51.456;7.244;2023-03-03T01:04:22;3.20;97.90
48998;DHT22;34807;51.456;7.244;2023-03-03T01:06:48;3.20;97.90
48998;DHT22;34807;51.456;7.244;2023-03-03T01:09:14;3.20;97.90
48998;DHT22;34807;51.456;7.244;2023-03-03T01:11:39;3.30;97.90
48998;DHT22;34807;51.456;7.244;2023-03-03T01:14:05;3.20;97.90
48998;DHT22;34807;51.456;7.244;2023-03-03T01:16:31;3.30;97.90
48998;DHT22;34807;51.456;7.244;2023-03-03T01:18:57;3.20;97.90
48998;DHT22;34807;51.456;7.244;2023-03-03T01:21:22;3.20;97.90
48998;DHT22;34807;51.456;7.244;2023-03-03T01:23:48;3.20;97.90
48998;DHT22;34807;51.456;7.244;2023-03-03T01:26:13;3.20;97.90
48998;DHT22;34807;51.456;7.244;2023-03-03T01:28:39;3.20;97.90
48998;DHT22;34807;51.456;7.244;2023-03-03T01:31:04;3.20;98.00
48998;DHT22;34807;51.456;7.244;2023-03-03T01:33:31;3.20;98.00
48998;DHT22;34807;51.456;7.244;2023-03-03T01:35:56;3.20;98.00
48998;DHT22;34807;51.456;7.244;2023-03-03T01:38:22;3.20;97.90
48998;DHT22;34807;51.456;7.244;2023-03-03T01:40:52;3.20;98.00
48998;DHT22;34807;51.456;7.244;2023-03-03T01:43:18;3.20;98.00
48998;DHT22;34807;51.456;7.244;2023-03-03T01:48:15;3.10;97.90
48998;DHT22;34807;51.456;7.244;2023-03-03T01:53:18;3.10;97.90
48998;DHT22;34807;51.456;7.244;2023-03-03T01:55:44;3.10;98.00
48998;DHT22;34807;51.456;7.244;2023-03-03T01:58:12;3.10;98.00
48998;DHT22;34807;51.456;7.244;2023-03-03T02:00:40;3.10;98.00
48998;DHT22;34807;51.456;7.244;2023-03-03T02:03:06;3.10;98.00
48998;DHT22;34807;51.456;7.244;2023-03-03T02:05:32;3.10;98.00
48998;DHT22;34807;51.456;7.244;2023-03-03T02:07:58;3.10;98.00
48998;DHT22;34807;51.456;7.244;2023-03-03T02:10:23;3.10;98.00
48998;DHT22;34807;51.456;7.244;2023-03-03T02:12:50;3.10;98.00
48998;DHT22;34807;51.456;7.244;2023-03-03T02:15:17;3.10;98.00
48998;DHT22;34807;51.456;7.244;2023-03-03T02:17:43;3.10;98.00
48998;DHT22;34807;51.456;7.244;2023-03-03T02:20:22;3.10;98.00
48998;DHT22;34807;51.456;7.244;2023-03-03T02:22:51;3.10;98.00
48998;DHT22;34807;51.456;7.244;2023-03-03T02:25:21;3.10;98.00
48998;DHT22;34807;51.456;7.244;2023-03-03T02:27:51;3.10;98.00
48998;DHT22;34807;51.456;7.244;2023-03-03T02:30:18;3.10;98.00
48998;DHT22;34807;51.456;7.244;2023-03-03T02:32:44;3.10;98.00
48998;DHT22;34807;51.456;7.244;2023-03-03T02:38:26;3.10;98.00
48998;DHT22;34807;51.456;7.244;2023-03-03T02:41:38;3.10;98.00
48998;DHT22;34807;51.456;7.244;2023-03-03T02:43:38;3.10;98.00
48998;DHT22;34807;51.456;7.244;2023-03-03T02:46:07;3.10;98.00
48998;DHT22;34807;51.456;7.244;2023-03-03T02:48:32;3.10;98.00
48998;DHT22;34807;51.456;7.244;2023-03-03T02:50:58;3.10;98.00
48998;DHT22;34807;51.456;7.244;2023-03-03T02:53:23;3.10;98.00
48998;DHT22;34807;51.456;7.244;2023-03-03T02:55:49;3.10;98.00
48998;DHT22;34807;51.456;7.244;2023-03-03T02:58:14;3.10;98.00
48998;DHT22;34807;51.456;7.244;2023-03-03T03:00:40;3.10;98.00
48998;DHT22;34807;51.456;7.244;2023-03-03T03:03:05;3.10;98.00
48998;DHT22;34807;51.456;7.244;2023-03-03T03:05:31;3.00;98.00
48998;DHT22;34807;51.456;7.244;2023-03-03T03:07:56;3.00;98.00
48998;DHT22;34807;51.456;7.244;2023-03-03T03:10:22;3.10;98.00
48998;DHT22;34807;51.456;7.244;2023-03-03T03:12:47;3.10;98.10
48998;DHT22;34807;51.456;7.244;2023-03-03T03:15:13;3.00;98.00
48998;DHT22;34807;51.456;7.244;2023-03-03T03:17:40;3.00;98.10
48998;DHT22;34807;51.456;7.244;2023-03-03T03:20:05;3.00;98.10
48998;DHT22;34807;51.456;7.244;2023-03-03T03:22:31;3.10;98.00
48998;DHT22;34807;51.456;7.244;2023-03-03T03:24:57;3.00;98.00
48998;DHT22;34807;51.456;7.244;2023-03-03T03:27:22;3.00;98.00
48998;DHT22;34807;51.456;7.244;2023-03-03T03:29:48;3.00;98.00
48998;DHT22;34807;51.456;7.244;2023-03-03T03:32:13;3.00;98.00
48998;DHT22;34807;51.456;7.244;2023-03-03T03:34:39;3.00;98.00
48998;DHT22;34807;51.456;7.244;2023-03-03T03:37:04;3.00;98.10
48998;DHT22;34807;51.456;7.244;2023-03-03T03:39:30;3.00;98.10
48998;DHT22;34807;51.456;7.244;2023-03-03T03:41:56;3.00;98.00
48998;DHT22;34807;51.456;7.244;2023-03-03T03:44:21;3.00;98.10
48998;DHT22;34807;51.456;7.244;2023-03-03T03:46:48;3.00;98.10
48998;DHT22;34807;51.456;7.244;2023-03-03T03:49:13;3.00;98.10
48998;DHT22;34807;51.456;7.244;2023-03-03T03:51:39;3.00;98.10
48998;DHT22;34807;51.456;7.244;2023-03-03T03:54:06;3.00;98.10
48998;DHT22;34807;51.456;7.244;2023-03-03T03:56:31;3.00;98.10
48998;DHT22;34807;51.456;7.244;2023-03-03T03:58:57;3.00;98.10
48998;DHT22;34807;51.456;7.244;2023-03-03T04:01:22;3.00;98.10
48998;DHT22;34807;51.456;7.244;2023-03-03T04:03:48;3.00;98.10
48998;DHT22;34807;51.456;7.244;2023-03-03T04:06:13;3.00;98.10
48998;DHT22;34807;51.456;7.244;2023-03-03T04:08:39;3.00;98.10
48998;DHT22;34807;51.456;7.244;2023-03-03T04:11:04;3.00;98.10
48998;DHT22;34807;51.456;7.244;2023-03-03T04:13:30;3.00;98.10
48998;DHT22;34807;51.456;7.244;2023-03-03T04:15:59;3.00;98.10
48998;DHT22;34807;51.456;7.244;2023-03-03T04:18:25;3.00;98.10
48998;DHT22;34807;51.456;7.244;2023-03-03T04:20:51;3.00;98.10
48998;DHT22;34807;51.456;7.244;2023-03-03T04:23:17;3.00;98.20
48998;DHT22;34807;51.456;7.244;2023-03-03T04:25:44;2.90;98.10
48998;DHT22;34807;51.456;7.244;2023-03-03T04:28:10;2.90;98.10
48998;DHT22;34807;51.456;7.244;2023-03-03T04:30:35;3.00;98.10
48998;DHT22;34807;51.456;7.244;2023-03-03T04:33:01;2.90;98.10
48998;DHT22;34807;51.456;7.244;2023-03-03T04:35:26;2.90;98.10
48998;DHT22;34807;51.456;7.244;2023-03-03T04:37:52;2.90;98.10
48998;DHT22;34807;51.456;7.244;2023-03-03T04:40:18;2.90;98.10
48998;DHT22;34807;51.456;7.244;2023-03-03T04:42:44;2.90;98.10
48998;DHT22;34807;51.456;7.244;2023-03-03T04:45:09;2.90;98.10
48998;DHT22;34807;51.456;7.244;2023-03-03T04:47:35;2.90;98.20
48998;DHT22;34807;51.456;7.244;2023-03-03T04:50:00;2.90;98.10
48998;DHT22;34807;51.456;7.244;2023-03-03T04:52:26;2.90;98.20
48998;DHT22;34807;51.456;7.244;2023-03-03T04:54:52;2.90;98.20
48998;DHT22;34807;51.456;7.244;2023-03-03T04:57:17;2.90;98.10
48998;DHT22;34807;51.456;7.244;2023-03-03T04:59:43;2.90;98.10
48998;DHT22;34807;51.456;7.244;2023-03-03T05:02:08;2.90;98.20
48998;DHT22;34807;51.456;7.244;2023-03-03T05:04:34;2.90;98.20
48998;DHT22;34807;51.456;7.244;2023-03-03T05:06:59;2.90;98.10
48998;DHT22;34807;51.456;7.244;2023-03-03T05:09:25;2.90;98.10
48998;DHT22;34807;51.456;7.244;2023-03-03T05:11:50;2.90;98.10
48998;DHT22;34807;51.456;7.244;2023-03-03T05:14:16;2.90;98.20
48998;DHT22;34807;51.456;7.244;2023-03-03T05:16:41;2.90;98.10
48998;DHT22;34807;51.456;7.244;2023-03-03T05:19:07;2.90;98.20
48998;DHT22;34807;51.456;7.244;2023-03-03T05:21:32;2.90;98.10
48998;DHT22;34807;51.456;7.244;2023-03-03T05:23:58;2.90;98.20
48998;DHT22;34807;51.456;7.244;2023-03-03T05:26:23;2.90;98.20
48998;DHT22;34807;51.456;7.244;2023-03-03T05:28:49;2.90;98.20
48998;DHT22;34807;51.456;7.244;2023-03-03T05:31:14;2.90;98.20
48998;DHT22;34807;51.456;7.244;2023-03-03T05:33:41;2.90;98.10
48998;DHT22;34807;51.456;7.244;2023-03-03T05:36:06;2.90;98.20
48998;DHT22;34807;51.456;7.244;2023-03-03T05:38:32;2.90;98.20
48998;DHT22;34807;51.456;7.244;2023-03-03T05:40:58;2.90;98.10
48998;DHT22;34807;51.456;7.244;2023-03-03T05:43:23;2.80;98.10
48998;DHT22;34807;51.456;7.244;2023-03-03T05:45:53;2.80;98.10
48998;DHT22;34807;51.456;7.244;2023-03-03T05:48:18;2.80;98.10
48998;DHT22;34807;51.456;7.244;2023-03-03T05:50:44;2.80;98.10
48998;DHT22;34807;51.456;7.244;2023-03-03T05:53:09;2.80;98.10
48998;DHT22;34807;51.456;7.244;2023-03-03T05:55:35;2.80;98.10
48998;DHT22;34807;51.456;7.244;2023-03-03T05:58:01;2.80;98.10
48998;DHT22;34807;51.456;7.244;2023-03-03T06:00:26;2.80;98.10
48998;DHT22;34807;51.456;7.244;2023-03-03T06:02:51;2.80;98.20
48998;DHT22;34807;51.456;7.244;2023-03-03T06:05:17;2.80;98.10
48998;DHT22;34807;51.456;7.244;2023-03-03T06:07:43;2.80;98.20
48998;DHT22;34807;51.456;7.244;2023-03-03T06:10:09;2.80;98.10
48998;DHT22;34807;51.456;7.244;2023-03-03T06:12:35;2.80;98.10
48998;DHT22;34807;51.456;7.244;2023-03-03T06:15:01;2.80;98.10
48998;DHT22;34807;51.456;7.244;2023-03-03T06:17:27;2.80;98.20
48998;DHT22;34807;51.456;7.244;2023-03-03T06:19:52;2.80;98.10
48998;DHT22;34807;51.456;7.244;2023-03-03T06:22:18;2.80;98.10
48998;DHT22;34807;51.456;7.244;2023-03-03T06:24:43;2.80;98.10
48998;DHT22;34807;51.456;7.244;2023-03-03T06:27:09;2.80;98.10
48998;DHT22;34807;51.456;7.244;2023-03-03T06:29:34;2.80;98.20
48998;DHT22;34807;51.456;7.244;2023-03-03T06:32:00;2.80;98.20
48998;DHT22;34807;51.456;7.244;2023-03-03T06:34:25;2.80;98.10
48998;DHT22;34807;51.456;7.244;2023-03-03T06:36:51;2.80;98.20
48998;DHT22;34807;51.456;7.244;2023-03-03T06:39:17;2.80;98.20
48998;DHT22;34807;51.456;7.244;2023-03-03T06:41:42;2.80;98.20
48998;DHT22;34807;51.456;7.244;2023-03-03T06:44:08;2.80;98.20
48998;DHT22;34807;51.456;7.244;2023-03-03T06:46:33;2.80;98.20
48998;DHT22;34807;51.456;7.244;2023-03-03T06:48:59;2.80;98.20
48998;DHT22;34807;51.456;7.244;2023-03-03T06:51:26;2.80;98.10
48998;DHT22;34807;51.456;7.244;2023-03-03T06:53:55;2.80;98.10
48998;DHT22;34807;51.456;7.244;2023-03-03T06:56:24;2.80;98.10
48998;DHT22;34807;51.456;7.244;2023-03-03T06:58:53;2.80;98.10
48998;DHT22;34807;51.456;7.244;2023-03-03T07:01:20;2.80;98.10
48998;DHT22;34807;51.456;7.244;2023-03-03T07:03:46;2.80;98.10
48998;DHT22;34807;51.456;7.244;2023-03-03T07:08:43;2.80;98.10
48998;DHT22;34807;51.456;7.244;2023-03-03T07:11:10;2.80;98.10
48998;DHT22;34807;51.456;7.244;2023-03-03T07:13:37;2.80;98.10
48998;DHT22;34807;51.456;7.244;2023-03-03T07:16:08;2.80;98.10
48998;DHT22;34807;51.456;7.244;2023-03-03T07:21:05;2.80;98.10
48998;DHT22;34807;51.456;7.244;2023-03-03T07:23:36;2.80;98.10
48998;DHT22;34807;51.456;7.244;2023-03-03T07:26:13;2.80;98.10
48998;DHT22;34807;51.456;7.244;2023-03-03T07:28:40;2.80;98.10
48998;DHT22;34807;51.456;7.244;2023-03-03T07:31:15;2.80;98.10
48998;DHT22;34807;51.456;7.244;2023-03-03T07:33:42;2.80;98.10
48998;DHT22;34807;51.456;7.244;2023-03-03T07:36:21;2.80;98.10
48998;DHT22;34807;51.456;7.244;2023-03-03T07:38:50;2.80;98.10
48998;DHT22;34807;51.456;7.244;2023-03-03T07:41:17;2.80;98.10
48998;DHT22;34807;51.456;7.244;2023-03-03T07:48:58;2.80;98.10
48998;DHT22;34807;51.456;7.244;2023-03-03T07:51:28;2.80;98.10
48998;DHT22;34807;51.456;7.244;2023-03-03T07:56:36;2.80;98.10
48998;DHT22;34807;51.456;7.244;2023-03-03T07:59:08;2.80;98.10
48998;DHT22;34807;51.456;7.244;2023-03-03T08:01:40;2.80;98.10
48998;DHT22;34807;51.456;7.244;2023-03-03T08:11:40;2.80;98.10
48998;DHT22;34807;51.456;7.244;2023-03-03T08:14:12;2.80;98.10
48998;DHT22;34807;51.456;7.244;2023-03-03T08:16:39;2.80;98.10
48998;DHT22;34807;51.456;7.244;2023-03-03T08:19:05;2.80;98.10
48998;DHT22;34807;51.456;7.244;2023-03-03T08:21:31;2.80;98.10
48998;DHT22;34807;51.456;7.244;2023-03-03T08:23:58;2.80;98.10
48998;DHT22;34807;51.456;7.244;2023-03-03T08:26:24;2.80;98.10
48998;DHT22;34807;51.456;7.244;2023-03-03T08:28:50;2.80;98.10
48998;DHT22;34807;51.456;7.244;2023-03-03T08:31:15;2.80;98.10
48998;DHT22;34807;51.456;7.244;2023-03-03T08:33:42;2.80;98.10
48998;DHT22;34807;51.456;7.244;2023-03-03T08:36:08;2.80;98.10
48998;DHT22;34807;51.456;7.244;2023-03-03T08:38:34;2.80;98.20
48998;DHT22;34807;51.456;7.244;2023-03-03T08:40:59;2.80;98.10
48998;DHT22;34807;51.456;7.244;2023-03-03T08:43:25;2.80;98.10
48998;DHT22;34807;51.456;7.244;2023-03-03T08:45:51;2.80;98.10
48998;DHT22;34807;51.456;7.244;2023-03-03T08:48:17;2.80;98.10
48998;DHT22;34807;51.456;7.244;2023-03-03T08:50:43;2.80;98.10
48998;DHT22;34807;51.456;7.244;2023-03-03T08:53:09;2.80;98.10
48998;DHT22;34807;51.456;7.244;2023-03-03T08:55:35;2.80;98.20
48998;DHT22;34807;51.456;7.244;2023-03-03T08:58:01;2.80;98.10
48998;DHT22;34807;51.456;7.244;2023-03-03T09:00:26;2.80;98.20
48998;DHT22;34807;51.456;7.244;2023-03-03T09:02:52;2.80;98.20
48998;DHT22;34807;51.456;7.244;2023-03-03T09:05:18;2.80;98.10
48998;DHT22;34807;51.456;7.244;2023-03-03T09:07:45;2.80;98.20
48998;DHT22;34807;51.456;7.244;2023-03-03T09:10:12;2.80;98.10
48998;DHT22;34807;51.456;7.244;2023-03-03T09:12:39;2.80;98.20
48998;DHT22;34807;51.456;7.244;2023-03-03T09:15:27;2.90;98.20
48998;DHT22;34807;51.456;7.244;2023-03-03T09:17:51;2.90;98.20
48998;DHT22;34807;51.456;7.244;2023-03-03T09:22:46;2.90;98.10
48998;DHT22;34807;51.456;7.244;2023-03-03T09:27:56;2.90;98.20
48998;DHT22;34807;51.456;7.244;2023-03-03T09:32:50;2.90;98.20
48998;DHT22;34807;51.456;7.244;2023-03-03T09:35:36;2.90;98.10
48998;DHT22;34807;51.456;7.244;2023-03-03T09:55:46;3.00;98.20
48998;DHT22;34807;51.456;7.244;2023-03-03T10:08:39;3.10;98.20
48998;DHT22;34807;51.456;7.244;2023-03-03T10:19:09;3.10;98.20
48998;DHT22;34807;51.456;7.244;2023-03-03T10:39:45;3.20;98.10
48998;DHT22;34807;51.456;7.244;2023-03-03T10:52:38;3.30;98.00
48998;DHT22;34807;51.456;7.244;2023-03-03T10:55:16;3.40;98.00
48998;DHT22;34807;51.456;7.244;2023-03-03T11:05:56;3.50;97.90
48998;DHT22;34807;51.456;7.244;2023-03-03T11:08:20;3.50;98.20
48998;DHT22;34807;51.456;7.244;2023-03-03T11:11:09;3.40;97.90
48998;DHT22;34807;51.456;7.244;2023-03-03T11:13:46;3.50;97.90
48998;DHT22;34807;51.456;7.244;2023-03-03T11:18:45;3.50;97.80
48998;DHT22;34807;51.456;7.244;2023-03-03T11:21:25;3.50;97.90
48998;DHT22;34807;51.456;7.244;2023-03-03T11:34:02;3.60;97.90
48998;DHT22;34807;51.456;7.244;2023-03-03T11:39:10;3.70;97.80
48998;DHT22;34807;51.456;7.244;2023-03-03T11:46:29;3.70;97.80
48998;DHT22;34807;51.456;7.244;2023-03-03T11:49:02;3.70;97.80
48998;DHT22;34807;51.456;7.244;2023-03-03T11:54:08;3.70;97.80
48998;DHT22;34807;51.456;7.244;2023-03-03T11:56:38;3.80;97.80
48998;DHT22;34807;51.456;7.244;2023-03-03T12:01:55;3.80;97.70
48998;DHT22;34807;51.456;7.244;2023-03-03T12:09:46;3.90;97.80
48998;DHT22;34807;51.456;7.244;2023-03-03T12:12:14;3.90;97.70
48998;DHT22;34807;51.456;7.244;2023-03-03T12:22:26;4.00;97.50
48998;DHT22;34807;51.456;7.244;2023-03-03T12:30:01;4.10;97.50
48998;DHT22;34807;51.456;7.244;2023-03-03T12:35:08;4.10;97.50
48998;DHT22;34807;51.456;7.244;2023-03-03T12:37:43;4.10;97.50
48998;DHT22;34807;51.456;7.244;2023-03-03T12:47:46;4.20;97.50
48998;DHT22;34807;51.456;7.244;2023-03-03T13:13:29;4.50;97.20
48998;DHT22;34807;51.456;7.244;2023-03-03T13:21:08;4.50;97.10
48998;DHT22;34807;51.456;7.244;2023-03-03T13:28:39;4.70;96.90
48998;DHT22;34807;51.456;7.244;2023-03-03T13:31:14;4.70;96.90
48998;DHT22;34807;51.456;7.244;2023-03-03T13:33:42;4.70;96.80
48998;DHT22;34807;51.456;7.244;2023-03-03T13:36:13;4.70;96.90
48998;DHT22;34807;51.456;7.244;2023-03-03T13:38:39;4.70;96.80
48998;DHT22;34807;51.456;7.244;2023-03-03T13:41:08;4.80;96.80
48998;DHT22;34807;51.456;7.244;2023-03-03T13:48:56;5.00;96.70
48998;DHT22;34807;51.456;7.244;2023-03-03T13:51:33;5.00;96.60
48998;DHT22;34807;51.456;7.244;2023-03-03T14:01:46;5.10;96.50
48998;DHT22;34807;51.456;7.244;2023-03-03T14:06:39;5.20;96.50
48998;DHT22;34807;51.456;7.244;2023-03-03T14:11:37;5.20;96.40
48998;DHT22;34807;51.456;7.244;2023-03-03T14:21:57;5.30;96.40
48998;DHT22;34807;51.456;7.244;2023-03-03T14:24:27;5.30;96.40
48998;DHT22;34807;51.456;7.244;2023-03-03T14:26:57;5.30;96.40
48998;DHT22;34807;51.456;7.244;2023-03-03T14:32:01;5.40;96.40
48998;DHT22;34807;51.456;7.244;2023-03-03T14:34:44;5.40;96.40
48998;DHT22;34807;51.456;7.244;2023-03-03T14:37:21;5.50;96.40
48998;DHT22;34807;51.456;7.244;2023-03-03T14:39:58;5.50;96.20
48998;DHT22;34807;51.456;7.244;2023-03-03T14:42:36;5.60;96.20
48998;DHT22;34807;51.456;7.244;2023-03-03T14:45:20;5.60;96.10
48998;DHT22;34807;51.456;7.244;2023-03-03T14:47:47;5.60;96.10
48998;DHT22;34807;51.456;7.244;2023-03-03T14:53:19;5.60;96.20
48998;DHT22;34807;51.456;7.244;2023-03-03T14:55:46;5.60;96.30
48998;DHT22;34807;51.456;7.244;2023-03-03T15:01:12;5.60;96.50
48998;DHT22;34807;51.456;7.244;2023-03-03T15:03:43;5.60;96.70
48998;DHT22;34807;51.456;7.244;2023-03-03T15:06:09;5.50;96.60
48998;DHT22;34807;51.456;7.244;2023-03-03T15:08:38;5.50;96.60
48998;DHT22;34807;51.456;7.244;2023-03-03T15:13:47;5.50;96.70
48998;DHT22;34807;51.456;7.244;2023-03-03T15:16:17;5.50;96.80
48998;DHT22;34807;51.456;7.244;2023-03-03T15:21:25;5.50;96.80
48998;DHT22;34807;51.456;7.244;2023-03-03T15:29:07;5.50;96.70
48998;DHT22;34807;51.456;7.244;2023-03-03T15:37:19;5.50;96.90
48998;DHT22;34807;51.456;7.244;2023-03-03T15:42:30;5.50;96.90
48998;DHT22;34807;51.456;7.244;2023-03-03T15:47:56;5.50;96.90
48998;DHT22;34807;51.456;7.244;2023-03-03T16:01:04;5.40;96.90
48998;DHT22;34807;51.456;7.244;2023-03-03T16:03:36;5.40;97.00
48998;DHT22;34807;51.456;7.244;2023-03-03T16:06:10;5.40;97.00
48998;DHT22;34807;51.456;7.244;2023-03-03T16:26:42;5.20;97.20
48998;DHT22;34807;51.456;7.244;2023-03-03T16:31:55;5.20;97.20
48998;DHT22;34807;51.456;7.244;2023-03-03T16:34:41;5.20;97.20
48998;DHT22;34807;51.456;7.244;2023-03-03T16:39:41;5.10;97.30
48998;DHT22;34807;51.456;7.244;2023-03-03T16:42:23;5.10;97.40
48998;DHT22;34807;51.456;7.244;2023-03-03T16:47:22;5.00;97.50
48998;DHT22;34807;51.456;7.244;2023-03-03T16:49:54;5.00;97.50
48998;DHT22;34807;51.456;7.244;2023-03-03T16:52:24;5.00;97.60
48998;DHT22;34807;51.456;7.244;2023-03-03T16:54:54;5.00;97.60
48998;DHT22;34807;51.456;7.244;2023-03-03T17:08:02;4.80;97.70
48998;DHT22;34807;51.456;7.244;2023-03-03T17:10:31;4.70;97.80
48998;DHT22;34807;51.456;7.244;2023-03-03T17:18:11;4.60;97.80
48998;DHT22;34807;51.456;7.244;2023-03-03T17:20:47;4.60;97.80
48998;DHT22;34807;51.456;7.244;2023-03-03T17:33:53;4.50;98.00
48998;DHT22;34807;51.456;7.244;2023-03-03T17:39:00;4.30;97.90
48998;DHT22;34807;51.456;7.244;2023-03-03T17:41:41;4.30;97.90
48998;DHT22;34807;51.456;7.244;2023-03-03T17:46:50;4.20;97.90
48998;DHT22;34807;51.456;7.244;2023-03-03T18:07:27;4.00;98.00
48998;DHT22;34807;51.456;7.244;2023-03-03T18:17:43;3.90;98.10
48998;DHT22;34807;51.456;7.244;2023-03-03T18:22:41;3.80;98.20
48998;DHT22;34807;51.456;7.244;2023-03-03T18:25:12;3.80;98.20
48998;DHT22;34807;51.456;7.244;2023-03-03T18:27:38;3.80;98.10
48998;DHT22;34807;51.456;7.244;2023-03-03T18:32:44;3.70;98.00
48998;DHT22;34807;51.456;7.244;2023-03-03T18:37:45;3.70;98.10
48998;DHT22;34807;51.456;7.244;2023-03-03T18:45:47;3.60;98.00
48998;DHT22;34807;51.456;7.244;2023-03-03T18:53:20;3.60;98.00
48998;DHT22;34807;51.456;7.244;2023-03-03T18:55:44;3.60;98.00
48998;DHT22;34807;51.456;7.244;2023-03-03T19:00:45;3.60;97.90
48998;DHT22;34807;51.456;7.244;2023-03-03T19:05:49;3.60;98.00
48998;DHT22;34807;51.456;7.244;2023-03-03T19:08:22;3.60;98.00
48998;DHT22;34807;51.456;7.244;2023-03-03T19:10:50;3.60;97.90
48998;DHT22;34807;51.456;7.244;2023-03-03T19:16:01;3.60;97.90
48998;DHT22;34807;51.456;7.244;2023-03-03T19:18:27;3.60;98.00
48998;DHT22;34807;51.456;7.244;2023-03-03T19:23:33;3.60;98.00
48998;DHT22;34807;51.456;7.244;2023-03-03T19:28:57;3.60;98.00
48998;DHT22;34807;51.456;7.244;2023-03-03T19:34:11;3.60;98.10
48998;DHT22;34807;51.456;7.244;2023-03-03T19:39:37;3.60;98.00
48998;DHT22;34807;51.456;7.244;2023-03-03T20:15:15;3.60;98.10
48998;DHT22;34807;51.456;7.244;2023-03-03T20:25:26;3.60;98.20
48998;DHT22;34807;51.456;7.244;2023-03-03T20:33:49;3.60;98.20
48998;DHT22;34807;51.456;7.244;2023-03-03T20:54:05;3.60;98.20
48998;DHT22;34807;51.456;7.244;2023-03-03T20:56:41;3.50;98.20
48998;DHT22;34807;51.456;7.244;2023-03-03T20:59:14;3.60;98.30
48998;DHT22;34807;51.456;7.244;2023-03-03T21:04:19;3.60;98.30
48998;DHT22;34807;51.456;7.244;2023-03-03T21:06:45;3.50;98.30
48998;DHT22;34807;51.456;7.244;2023-03-03T21:09:30;3.50;98.30
48998;DHT22;34807;51.456;7.244;2023-03-03T21:11:57;3.60;98.30
48998;DHT22;34807;51.456;7.244;2023-03-03T21:14:27;3.50;98.30
48998;DHT22;34807;51.456;7.244;2023-03-03T21:16:57;3.50;98.30
48998;DHT22;34807;51.456;7.244;2023-03-03T21:19:27;3.50;98.30
48998;DHT22;34807;51.456;7.244;2023-03-03T21:21:52;3.50;98.20
48998;DHT22;34807;51.456;7.244;2023-03-03T21:24:18;3.50;98.30
48998;DHT22;34807;51.456;7.244;2023-03-03T21:29:20;3.50;98.20
48998;DHT22;34807;51.456;7.244;2023-03-03T21:31:47;3.50;98.30
48998;DHT22;34807;51.456;7.244;2023-03-03T21:34:17;3.50;98.20
48998;DHT22;34807;51.456;7.244;2023-03-03T21:36:43;3.50;98.20
48998;DHT22;34807;51.456;7.244;2023-03-03T21:41:54;3.50;98.20
48998;DHT22;34807;51.456;7.244;2023-03-03T21:46:58;3.50;98.30
48998;DHT22;34807;51.456;7.244;2023-03-03T21:49:23;3.50;98.20
48998;DHT22;34807;51.456;7.244;2023-03-03T21:51:49;3.50;98.30
48998;DHT22;34807;51.456;7.244;2023-03-03T21:54:14;3.50;98.20
48998;DHT22;34807;51.456;7.244;2023-03-03T21:56:40;3.60;98.30
48998;DHT22;34807;51.456;7.244;2023-03-03T21:59:06;3.50;98.20
48998;DHT22;34807;51.456;7.244;2023-03-03T22:01:32;3.60;98.30
48998;DHT22;34807;51.456;7.244;2023-03-03T22:03:57;3.60;98.30
48998;DHT22;34807;51.456;7.244;2023-03-03T22:06:23;3.50;98.30
48998;DHT22;34807;51.456;7.244;2023-03-03T22:08:48;3.60;98.30
48998;DHT22;34807;51.456;7.244;2023-03-03T22:11:14;3.60;98.30
48998;DHT22;34807;51.456;7.244;2023-03-03T22:13:39;3.60;98.30
48998;DHT22;34807;51.456;7.244;2023-03-03T22:16:05;3.60;98.30
48998;DHT22;34807;51.456;7.244;2023-03-03T22:18:32;3.60;98.30
48998;DHT22;34807;51.456;7.244;2023-03-03T22:20:57;3.60;98.30
48998;DHT22;34807;51.456;7.244;2023-03-03T22:23:23;3.60;98.20
48998;DHT22;34807;51.456;7.244;2023-03-03T22:25:49;3.60;98.30
48998;DHT22;34807;51.456;7.244;2023-03-03T22:28:14;3.60;98.30
48998;DHT22;34807;51.456;7.244;2023-03-03T22:30:40;3.60;98.30
48998;DHT22;34807;51.456;7.244;2023-03-03T22:33:05;3.60;98.20
48998;DHT22;34807;51.456;7.244;2023-03-03T22:35:31;3.60;98.20
48998;DHT22;34807;51.456;7.244;2023-03-03T22:37:56;3.60;98.20
48998;DHT22;34807;51.456;7.244;2023-03-03T22:40:22;3.60;98.20
48998;DHT22;34807;51.456;7.244;2023-03-03T22:42:47;3.60;98.20
48998;DHT22;34807;51.456;7.244;2023-03-03T22:45:13;3.60;98.20
48998;DHT22;34807;51.456;7.244;2023-03-03T22:47:39;3.60;98.30
48998;DHT22;34807;51.456;7.244;2023-03-03T22:50:05;3.60;98.50
48998;DHT22;34807;51.456;7.244;2023-03-03T22:52:30;3.60;98.20
48998;DHT22;34807;51.456;7.244;2023-03-03T22:54:56;3.60;98.50
48998;DHT22;34807;51.456;7.244;2023-03-03T22:57:23;3.60;98.20
48998;DHT22;34807;51.456;7.244;2023-03-03T22:59:49;3.60;98.20
48998;DHT22;34807;51.456;7.244;2023-03-03T23:02:14;3.60;98.30
48998;DHT22;34807;51.456;7.244;2023-03-03T23:04:40;3.60;98.20
48998;DHT22;34807;51.456;7.244;2023-03-03T23:07:05;3.60;98.20
48998;DHT22;34807;51.456;7.244;2023-03-03T23:09:31;3.60;98.20
48998;DHT22;34807;51.456;7.244;2023-03-03T23:11:56;3.60;98.20
48998;DHT22;34807;51.456;7.244;2023-03-03T23:14:22;3.60;98.20
48998;DHT22;34807;51.456;7.244;2023-03-03T23:16:47;3.60;98.20
48998;DHT22;34807;51.456;7.244;2023-03-03T23:19:13;3.70;98.20
48998;DHT22;34807;51.456;7.244;2023-03-03T23:21:38;3.60;98.20
48998;DHT22;34807;51.456;7.244;2023-03-03T23:24:04;3.60;98.20
48998;DHT22;34807;51.456;7.244;2023-03-03T23:26:29;3.60;98.30
48998;DHT22;34807;51.456;7.244;2023-03-03T23:28:55;3.70;98.20
48998;DHT22;34807;51.456;7.244;2023-03-03T23:31:20;3.60;98.30
48998;DHT22;34807;51.456;7.244;2023-03-03T23:33:46;3.60;98.30
48998;DHT22;34807;51.456;7.244;2023-03-03T23:36:12;3.70;98.30
48998;DHT22;34807;51.456;7.244;2023-03-03T23:38:37;3.70;98.20
48998;DHT22;34807;51.456;7.244;2023-03-03T23:41:03;3.70;98.30